This is the latest recevied weather packets stored in our database for station/object KF7SOJ. If no packets are shown the sender has not sent any weather packets the latest 10 day(s).
| Time | Temp. | Humidity | Pressure | Rain* | Wind** | Luminosity | Snow |
|---|---|---|---|---|---|---|---|
| 1777593380 | 16.67° C | 24% | 935.9 hPa | 0 mm | - | 350 W/m² | - |
| 1777593079 | 16.11° C | 25% | 935.7 hPa | 0 mm | - | 370 W/m² | - |
| 1777592778 | 16.11° C | 24% | 935.8 hPa | 0 mm | - | 377 W/m² | - |
| 1777592474 | 16.67° C | 26% | 935.9 hPa | 0 mm | - | 394 W/m² | - |
| 1777592169 | 16.67° C | 25% | 935.8 hPa | 0 mm | - | 412 W/m² | - |
| 1777591867 | 16.67° C | 24% | 935.7 hPa | 0 mm | - | 413 W/m² | - |
| 1777591563 | 16.67° C | 23% | 935.9 hPa | 0 mm | - | 451 W/m² | - |
| 1777591259 | 17.22° C | 22% | 935.9 hPa | 0 mm | - | 469 W/m² | - |
| 1777590954 | 17.78° C | 22% | 935.8 hPa | 0 mm | - | 487 W/m² | - |
| 1777590650 | 16.67° C | 25% | 935.9 hPa | 0 mm | - | 506 W/m² | - |
| 1777590346 | 16.67° C | 24% | 935.8 hPa | 0 mm | - | 523 W/m² | - |
| 1777590044 | 16.67° C | 22% | 935.7 hPa | 0 mm | - | 536 W/m² | - |
| 1777589740 | 16.11° C | 25% | 935.8 hPa | 0 mm | - | 552 W/m² | - |
| 1777589439 | 16.11° C | 25% | 935.9 hPa | 0 mm | - | 568 W/m² | - |
| 1777589135 | 16.67° C | 23% | 935.8 hPa | 0 mm | - | 583 W/m² | - |
| 1777588831 | 16.67° C | 24% | 935.9 hPa | 0 mm | - | 601 W/m² | - |
| 1777588527 | 16.67° C | 25% | 935.9 hPa | 0 mm | - | 617 W/m² | - |
| 1777588222 | 16.67° C | 24% | 936 hPa | 0 mm | - | 636 W/m² | - |
| 1777587917 | 16.67° C | 23% | 935.9 hPa | 0 mm | - | 652 W/m² | - |
| 1777587614 | 16.11° C | 25% | 935.8 hPa | 0 mm | - | 666 W/m² | - |
| 1777587309 | 16.11° C | 26% | 936.1 hPa | 0 mm | - | 683 W/m² | - |
| 1777587004 | 16.11° C | 23% | 936 hPa | 0 mm | - | 700 W/m² | - |
| 1777586700 | 15.56° C | 24% | 936.1 hPa | 0 mm | - | 724 W/m² | - |
| 1777586396 | 16.11° C | 22% | 936.2 hPa | 0 mm | - | 736 W/m² | - |
| 1777586095 | 16.11° C | 25% | 936.2 hPa | 0 mm | - | 738 W/m² | - |
* Rain latest hour (hover to see other rain measurements)
** Current wind speed in m/s (hover to see current wind gust speed)